sensor_id;sensor_type;location;lat;lon;timestamp;P1;durP1;ratioP1;P2;durP2;ratioP2
5702;SDS011;2876;51.738;10.050;2022-07-29T00:00:15;6.43;;;1.80;;
5702;SDS011;2876;51.738;10.050;2022-07-29T00:06:17;4.77;;;1.57;;
5702;SDS011;2876;51.738;10.050;2022-07-29T00:12:20;3.90;;;1.90;;
5702;SDS011;2876;51.738;10.050;2022-07-29T00:18:26;3.37;;;1.80;;
5702;SDS011;2876;51.738;10.050;2022-07-29T00:24:30;13.97;;;1.87;;
5702;SDS011;2876;51.738;10.050;2022-07-29T00:30:32;4.03;;;1.53;;
5702;SDS011;2876;51.738;10.050;2022-07-29T00:36:34;3.07;;;1.53;;
5702;SDS011;2876;51.738;10.050;2022-07-29T00:42:46;9.07;;;2.00;;
5702;SDS011;2876;51.738;10.050;2022-07-29T00:48:50;3.00;;;1.53;;
5702;SDS011;2876;51.738;10.050;2022-07-29T00:54:52;6.77;;;2.20;;
5702;SDS011;2876;51.738;10.050;2022-07-29T01:00:54;1.90;;;1.40;;
5702;SDS011;2876;51.738;10.050;2022-07-29T01:06:56;8.17;;;2.10;;
5702;SDS011;2876;51.738;10.050;2022-07-29T01:12:59;5.63;;;1.67;;
5702;SDS011;2876;51.738;10.050;2022-07-29T01:32:28;3.07;;;1.70;;
5702;SDS011;2876;51.738;10.050;2022-07-29T01:38:34;3.23;;;1.50;;
5702;SDS011;2876;51.738;10.050;2022-07-29T01:44:46;3.90;;;2.00;;
5702;SDS011;2876;51.738;10.050;2022-07-29T01:50:58;8.47;;;1.80;;
5702;SDS011;2876;51.738;10.050;2022-07-29T01:57:29;1.40;;;1.30;;
5702;SDS011;2876;51.738;10.050;2022-07-29T02:03:34;4.30;;;1.47;;
5702;SDS011;2876;51.738;10.050;2022-07-29T02:09:39;4.97;;;1.53;;
5702;SDS011;2876;51.738;10.050;2022-07-29T02:15:43;3.43;;;1.50;;
5702;SDS011;2876;51.738;10.050;2022-07-29T02:21:47;6.77;;;2.30;;
5702;SDS011;2876;51.738;10.050;2022-07-29T02:27:52;4.03;;;1.63;;
5702;SDS011;2876;51.738;10.050;2022-07-29T02:33:56;7.10;;;1.70;;
5702;SDS011;2876;51.738;10.050;2022-07-29T02:40:00;1.90;;;1.50;;
5702;SDS011;2876;51.738;10.050;2022-07-29T02:46:04;2.93;;;1.40;;
5702;SDS011;2876;51.738;10.050;2022-07-29T02:52:34;3.63;;;1.53;;
5702;SDS011;2876;51.738;10.050;2022-07-29T02:58:52;3.93;;;1.70;;
5702;SDS011;2876;51.738;10.050;2022-07-29T03:04:58;3.50;;;1.70;;
5702;SDS011;2876;51.738;10.050;2022-07-29T03:11:03;1.67;;;1.57;;
5702;SDS011;2876;51.738;10.050;2022-07-29T03:17:05;6.63;;;2.00;;
5702;SDS011;2876;51.738;10.050;2022-07-29T03:23:08;2.60;;;1.83;;
5702;SDS011;2876;51.738;10.050;2022-07-29T03:29:10;2.57;;;1.60;;
5702;SDS011;2876;51.738;10.050;2022-07-29T03:35:14;3.20;;;1.80;;
5702;SDS011;2876;51.738;10.050;2022-07-29T03:41:17;3.80;;;1.60;;
5702;SDS011;2876;51.738;10.050;2022-07-29T03:47:23;10.33;;;1.90;;
5702;SDS011;2876;51.738;10.050;2022-07-29T03:53:49;1.50;;;1.37;;
5702;SDS011;2876;51.738;10.050;2022-07-29T03:59:51;3.77;;;1.67;;
5702;SDS011;2876;51.738;10.050;2022-07-29T04:05:58;1.97;;;1.50;;
5702;SDS011;2876;51.738;10.050;2022-07-29T04:12:01;2.90;;;1.67;;
5702;SDS011;2876;51.738;10.050;2022-07-29T04:18:04;8.50;;;1.57;;
5702;SDS011;2876;51.738;10.050;2022-07-29T04:24:07;5.40;;;2.20;;
5702;SDS011;2876;51.738;10.050;2022-07-29T04:30:09;3.57;;;1.63;;
5702;SDS011;2876;51.738;10.050;2022-07-29T04:36:11;5.33;;;4.17;;
5702;SDS011;2876;51.738;10.050;2022-07-29T04:42:29;2.40;;;1.70;;
5702;SDS011;2876;51.738;10.050;2022-07-29T04:48:32;7.23;;;1.70;;
5702;SDS011;2876;51.738;10.050;2022-07-29T04:54:34;12.53;;;2.23;;
5702;SDS011;2876;51.738;10.050;2022-07-29T05:00:36;7.00;;;2.07;;
5702;SDS011;2876;51.738;10.050;2022-07-29T05:06:38;1.93;;;1.50;;
5702;SDS011;2876;51.738;10.050;2022-07-29T05:12:40;3.27;;;1.80;;
5702;SDS011;2876;51.738;10.050;2022-07-29T05:18:42;2.37;;;1.87;;
5702;SDS011;2876;51.738;10.050;2022-07-29T05:24:44;2.80;;;2.20;;
5702;SDS011;2876;51.738;10.050;2022-07-29T05:30:46;3.97;;;2.17;;
5702;SDS011;2876;51.738;10.050;2022-07-29T05:36:49;3.13;;;2.13;;
5702;SDS011;2876;51.738;10.050;2022-07-29T05:42:52;5.30;;;1.87;;
5702;SDS011;2876;51.738;10.050;2022-07-29T05:48:54;4.17;;;2.30;;
5702;SDS011;2876;51.738;10.050;2022-07-29T05:54:56;4.80;;;1.80;;
5702;SDS011;2876;51.738;10.050;2022-07-29T06:00:58;5.50;;;1.70;;
5702;SDS011;2876;51.738;10.050;2022-07-29T06:07:01;4.07;;;1.57;;
5702;SDS011;2876;51.738;10.050;2022-07-29T06:13:03;3.03;;;1.67;;
5702;SDS011;2876;51.738;10.050;2022-07-29T06:19:06;3.40;;;1.57;;
5702;SDS011;2876;51.738;10.050;2022-07-29T06:25:09;5.90;;;1.80;;
5702;SDS011;2876;51.738;10.050;2022-07-29T06:31:11;2.40;;;1.57;;
5702;SDS011;2876;51.738;10.050;2022-07-29T06:37:13;3.70;;;1.73;;
5702;SDS011;2876;51.738;10.050;2022-07-29T06:43:16;3.20;;;1.63;;
5702;SDS011;2876;51.738;10.050;2022-07-29T06:49:18;6.83;;;1.80;;
5702;SDS011;2876;51.738;10.050;2022-07-29T06:55:20;5.30;;;1.97;;
5702;SDS011;2876;51.738;10.050;2022-07-29T07:01:25;4.53;;;1.80;;
5702;SDS011;2876;51.738;10.050;2022-07-29T07:07:27;4.30;;;1.73;;
5702;SDS011;2876;51.738;10.050;2022-07-29T07:13:29;6.50;;;1.70;;
5702;SDS011;2876;51.738;10.050;2022-07-29T07:19:37;4.80;;;1.93;;
5702;SDS011;2876;51.738;10.050;2022-07-29T07:25:39;9.43;;;1.83;;
5702;SDS011;2876;51.738;10.050;2022-07-29T07:31:41;2.40;;;1.60;;
5702;SDS011;2876;51.738;10.050;2022-07-29T07:37:43;8.77;;;2.13;;
5702;SDS011;2876;51.738;10.050;2022-07-29T07:43:45;3.57;;;1.57;;
5702;SDS011;2876;51.738;10.050;2022-07-29T07:49:47;2.13;;;1.50;;
5702;SDS011;2876;51.738;10.050;2022-07-29T07:55:49;7.50;;;2.83;;
5702;SDS011;2876;51.738;10.050;2022-07-29T08:02:11;6.40;;;2.50;;
5702;SDS011;2876;51.738;10.050;2022-07-29T08:08:14;3.10;;;1.60;;
5702;SDS011;2876;51.738;10.050;2022-07-29T08:14:16;4.40;;;2.23;;
5702;SDS011;2876;51.738;10.050;2022-07-29T08:20:18;3.00;;;1.87;;
5702;SDS011;2876;51.738;10.050;2022-07-29T08:26:20;5.40;;;1.90;;
5702;SDS011;2876;51.738;10.050;2022-07-29T08:32:23;7.20;;;2.27;;
5702;SDS011;2876;51.738;10.050;2022-07-29T08:38:45;5.53;;;2.60;;
5702;SDS011;2876;51.738;10.050;2022-07-29T08:44:48;5.07;;;2.77;;
5702;SDS011;2876;51.738;10.050;2022-07-29T08:50:55;5.10;;;1.90;;
5702;SDS011;2876;51.738;10.050;2022-07-29T08:56:58;6.87;;;1.90;;
5702;SDS011;2876;51.738;10.050;2022-07-29T09:03:02;6.03;;;2.60;;
5702;SDS011;2876;51.738;10.050;2022-07-29T09:09:07;5.20;;;2.77;;
5702;SDS011;2876;51.738;10.050;2022-07-29T09:15:09;6.60;;;2.40;;
5702;SDS011;2876;51.738;10.050;2022-07-29T09:21:12;7.87;;;2.10;;
5702;SDS011;2876;51.738;10.050;2022-07-29T09:27:36;5.30;;;2.63;;
5702;SDS011;2876;51.738;10.050;2022-07-29T09:33:38;4.63;;;2.30;;
5702;SDS011;2876;51.738;10.050;2022-07-29T09:39:41;7.83;;;2.70;;
5702;SDS011;2876;51.738;10.050;2022-07-29T09:45:47;5.53;;;2.07;;
5702;SDS011;2876;51.738;10.050;2022-07-29T09:51:59;26.33;;;4.30;;
5702;SDS011;2876;51.738;10.050;2022-07-29T09:58:20;3.40;;;2.40;;
5702;SDS011;2876;51.738;10.050;2022-07-29T10:04:23;5.33;;;1.97;;
5702;SDS011;2876;51.738;10.050;2022-07-29T10:10:40;5.43;;;1.97;;
5702;SDS011;2876;51.738;10.050;2022-07-29T10:16:43;8.50;;;2.70;;
5702;SDS011;2876;51.738;10.050;2022-07-29T10:22:46;13.13;;;2.50;;
5702;SDS011;2876;51.738;10.050;2022-07-29T10:28:54;18.83;;;3.80;;
5702;SDS011;2876;51.738;10.050;2022-07-29T10:47:36;16.37;;;3.10;;
5702;SDS011;2876;51.738;10.050;2022-07-29T11:06:11;9.60;;;3.10;;
5702;SDS011;2876;51.738;10.050;2022-07-29T11:25:30;5.97;;;2.50;;
5702;SDS011;2876;51.738;10.050;2022-07-29T11:31:52;3.63;;;2.23;;
5702;SDS011;2876;51.738;10.050;2022-07-29T11:51:37;8.47;;;2.60;;
5702;SDS011;2876;51.738;10.050;2022-07-29T11:57:50;3.93;;;2.53;;
5702;SDS011;2876;51.738;10.050;2022-07-29T12:04:05;3.10;;;2.13;;
5702;SDS011;2876;51.738;10.050;2022-07-29T12:10:08;5.10;;;2.10;;
5702;SDS011;2876;51.738;10.050;2022-07-29T12:16:11;3.67;;;1.63;;
5702;SDS011;2876;51.738;10.050;2022-07-29T12:22:16;9.90;;;2.70;;
5702;SDS011;2876;51.738;10.050;2022-07-29T12:28:46;7.10;;;1.93;;
5702;SDS011;2876;51.738;10.050;2022-07-29T12:34:49;7.40;;;2.33;;
5702;SDS011;2876;51.738;10.050;2022-07-29T12:40:53;8.93;;;2.03;;
5702;SDS011;2876;51.738;10.050;2022-07-29T12:47:02;10.77;;;2.60;;
5702;SDS011;2876;51.738;10.050;2022-07-29T12:53:11;7.80;;;2.33;;
5702;SDS011;2876;51.738;10.050;2022-07-29T12:59:18;4.73;;;2.40;;
5702;SDS011;2876;51.738;10.050;2022-07-29T13:05:23;3.83;;;2.30;;
5702;SDS011;2876;51.738;10.050;2022-07-29T13:11:42;12.13;;;2.90;;
5702;SDS011;2876;51.738;10.050;2022-07-29T13:17:50;9.10;;;2.70;;
5702;SDS011;2876;51.738;10.050;2022-07-29T13:23:52;10.10;;;3.07;;
5702;SDS011;2876;51.738;10.050;2022-07-29T13:29:55;7.03;;;2.73;;
5702;SDS011;2876;51.738;10.050;2022-07-29T13:35:59;9.13;;;2.83;;
5702;SDS011;2876;51.738;10.050;2022-07-29T13:42:01;5.60;;;2.53;;
5702;SDS011;2876;51.738;10.050;2022-07-29T13:48:09;3.90;;;2.50;;
5702;SDS011;2876;51.738;10.050;2022-07-29T13:54:12;8.33;;;3.40;;
5702;SDS011;2876;51.738;10.050;2022-07-29T14:00:14;10.93;;;3.50;;
5702;SDS011;2876;51.738;10.050;2022-07-29T14:06:17;9.90;;;3.43;;
5702;SDS011;2876;51.738;10.050;2022-07-29T14:12:22;8.50;;;3.67;;
5702;SDS011;2876;51.738;10.050;2022-07-29T14:18:24;7.70;;;3.70;;
5702;SDS011;2876;51.738;10.050;2022-07-29T14:24:26;5.50;;;3.50;;
5702;SDS011;2876;51.738;10.050;2022-07-29T14:30:29;5.80;;;3.63;;
5702;SDS011;2876;51.738;10.050;2022-07-29T14:36:31;6.70;;;4.10;;
5702;SDS011;2876;51.738;10.050;2022-07-29T14:42:33;6.10;;;3.20;;
5702;SDS011;2876;51.738;10.050;2022-07-29T14:48:35;7.17;;;3.57;;
5702;SDS011;2876;51.738;10.050;2022-07-29T14:54:37;5.40;;;3.93;;
5702;SDS011;2876;51.738;10.050;2022-07-29T15:00:40;5.37;;;3.13;;
5702;SDS011;2876;51.738;10.050;2022-07-29T15:06:42;7.30;;;3.67;;
5702;SDS011;2876;51.738;10.050;2022-07-29T15:12:44;11.67;;;3.53;;
5702;SDS011;2876;51.738;10.050;2022-07-29T15:18:47;20.77;;;4.00;;
5702;SDS011;2876;51.738;10.050;2022-07-29T15:24:48;7.30;;;3.53;;
5702;SDS011;2876;51.738;10.050;2022-07-29T15:30:51;17.10;;;3.70;;
5702;SDS011;2876;51.738;10.050;2022-07-29T15:36:54;4.97;;;3.60;;
5702;SDS011;2876;51.738;10.050;2022-07-29T15:42:55;12.97;;;4.00;;
5702;SDS011;2876;51.738;10.050;2022-07-29T15:49:02;6.93;;;3.60;;
5702;SDS011;2876;51.738;10.050;2022-07-29T15:55:05;11.80;;;5.67;;
5702;SDS011;2876;51.738;10.050;2022-07-29T16:01:08;8.73;;;4.27;;
5702;SDS011;2876;51.738;10.050;2022-07-29T16:07:10;10.13;;;5.63;;
5702;SDS011;2876;51.738;10.050;2022-07-29T16:13:14;22.60;;;9.47;;
5702;SDS011;2876;51.738;10.050;2022-07-29T16:19:19;28.77;;;14.93;;
5702;SDS011;2876;51.738;10.050;2022-07-29T16:25:21;9.47;;;3.80;;
5702;SDS011;2876;51.738;10.050;2022-07-29T16:31:43;9.70;;;3.37;;
5702;SDS011;2876;51.738;10.050;2022-07-29T16:37:45;8.73;;;3.70;;
5702;SDS011;2876;51.738;10.050;2022-07-29T16:43:47;5.87;;;3.30;;
5702;SDS011;2876;51.738;10.050;2022-07-29T16:49:49;5.50;;;3.40;;
5702;SDS011;2876;51.738;10.050;2022-07-29T16:55:52;4.63;;;3.07;;
5702;SDS011;2876;51.738;10.050;2022-07-29T17:01:54;7.63;;;3.50;;
5702;SDS011;2876;51.738;10.050;2022-07-29T17:07:57;4.10;;;2.90;;
5702;SDS011;2876;51.738;10.050;2022-07-29T17:13:59;4.33;;;3.00;;
5702;SDS011;2876;51.738;10.050;2022-07-29T17:20:02;4.70;;;3.50;;
5702;SDS011;2876;51.738;10.050;2022-07-29T17:26:05;6.03;;;3.30;;
5702;SDS011;2876;51.738;10.050;2022-07-29T17:32:07;6.97;;;3.23;;
5702;SDS011;2876;51.738;10.050;2022-07-29T17:38:10;13.60;;;3.13;;
5702;SDS011;2876;51.738;10.050;2022-07-29T17:44:13;5.37;;;3.30;;
5702;SDS011;2876;51.738;10.050;2022-07-29T17:50:15;5.40;;;3.07;;
5702;SDS011;2876;51.738;10.050;2022-07-29T17:56:17;5.60;;;3.33;;
5702;SDS011;2876;51.738;10.050;2022-07-29T18:02:19;9.43;;;4.03;;
5702;SDS011;2876;51.738;10.050;2022-07-29T18:08:25;8.60;;;3.67;;
5702;SDS011;2876;51.738;10.050;2022-07-29T18:14:27;9.70;;;3.30;;
5702;SDS011;2876;51.738;10.050;2022-07-29T18:20:29;11.23;;;3.97;;
5702;SDS011;2876;51.738;10.050;2022-07-29T18:26:32;7.07;;;3.70;;
5702;SDS011;2876;51.738;10.050;2022-07-29T18:32:34;7.07;;;3.00;;
5702;SDS011;2876;51.738;10.050;2022-07-29T18:38:37;6.50;;;2.80;;
5702;SDS011;2876;51.738;10.050;2022-07-29T18:44:42;10.93;;;3.43;;
5702;SDS011;2876;51.738;10.050;2022-07-29T18:50:49;7.57;;;3.50;;
5702;SDS011;2876;51.738;10.050;2022-07-29T18:56:51;13.13;;;3.00;;
5702;SDS011;2876;51.738;10.050;2022-07-29T19:02:53;7.07;;;2.80;;
5702;SDS011;2876;51.738;10.050;2022-07-29T19:08:56;9.80;;;3.60;;
5702;SDS011;2876;51.738;10.050;2022-07-29T19:14:58;4.63;;;2.80;;
5702;SDS011;2876;51.738;10.050;2022-07-29T19:21:00;7.93;;;2.63;;
5702;SDS011;2876;51.738;10.050;2022-07-29T19:27:02;5.53;;;2.70;;
5702;SDS011;2876;51.738;10.050;2022-07-29T19:33:04;4.80;;;2.67;;
5702;SDS011;2876;51.738;10.050;2022-07-29T19:39:06;6.40;;;2.97;;
5702;SDS011;2876;51.738;10.050;2022-07-29T19:45:08;6.53;;;3.00;;
5702;SDS011;2876;51.738;10.050;2022-07-29T19:51:11;7.40;;;2.90;;
5702;SDS011;2876;51.738;10.050;2022-07-29T19:57:13;11.07;;;2.60;;
5702;SDS011;2876;51.738;10.050;2022-07-29T20:03:16;14.30;;;4.27;;
5702;SDS011;2876;51.738;10.050;2022-07-29T20:09:18;9.13;;;3.80;;
5702;SDS011;2876;51.738;10.050;2022-07-29T20:15:21;13.47;;;2.60;;
5702;SDS011;2876;51.738;10.050;2022-07-29T20:21:23;11.13;;;3.47;;
5702;SDS011;2876;51.738;10.050;2022-07-29T20:27:26;8.83;;;3.13;;
5702;SDS011;2876;51.738;10.050;2022-07-29T20:33:29;5.10;;;3.23;;
5702;SDS011;2876;51.738;10.050;2022-07-29T20:39:31;7.83;;;4.30;;
5702;SDS011;2876;51.738;10.050;2022-07-29T20:45:33;8.80;;;3.60;;
5702;SDS011;2876;51.738;10.050;2022-07-29T20:51:37;3.80;;;2.90;;
5702;SDS011;2876;51.738;10.050;2022-07-29T20:57:44;6.00;;;3.30;;
5702;SDS011;2876;51.738;10.050;2022-07-29T21:03:46;9.00;;;3.80;;
5702;SDS011;2876;51.738;10.050;2022-07-29T21:09:48;4.20;;;2.93;;
5702;SDS011;2876;51.738;10.050;2022-07-29T21:15:51;7.53;;;3.03;;
5702;SDS011;2876;51.738;10.050;2022-07-29T21:21:58;4.80;;;2.93;;
5702;SDS011;2876;51.738;10.050;2022-07-29T21:28:00;5.70;;;2.83;;
5702;SDS011;2876;51.738;10.050;2022-07-29T21:34:21;6.83;;;3.10;;
5702;SDS011;2876;51.738;10.050;2022-07-29T21:40:24;5.20;;;3.23;;
5702;SDS011;2876;51.738;10.050;2022-07-29T21:46:26;9.20;;;3.00;;
5702;SDS011;2876;51.738;10.050;2022-07-29T21:52:28;8.77;;;3.87;;
5702;SDS011;2876;51.738;10.050;2022-07-29T21:58:31;7.07;;;3.50;;
5702;SDS011;2876;51.738;10.050;2022-07-29T22:04:33;4.87;;;4.00;;
5702;SDS011;2876;51.738;10.050;2022-07-29T22:10:36;5.87;;;3.30;;
5702;SDS011;2876;51.738;10.050;2022-07-29T22:16:38;7.97;;;4.00;;
5702;SDS011;2876;51.738;10.050;2022-07-29T22:22:40;7.63;;;3.90;;
5702;SDS011;2876;51.738;10.050;2022-07-29T22:28:42;5.63;;;3.83;;
5702;SDS011;2876;51.738;10.050;2022-07-29T22:34:44;7.80;;;3.93;;
5702;SDS011;2876;51.738;10.050;2022-07-29T22:40:46;4.90;;;3.90;;
5702;SDS011;2876;51.738;10.050;2022-07-29T22:46:51;9.67;;;3.97;;
5702;SDS011;2876;51.738;10.050;2022-07-29T22:52:53;4.53;;;3.40;;
5702;SDS011;2876;51.738;10.050;2022-07-29T22:58:55;6.00;;;3.90;;
5702;SDS011;2876;51.738;10.050;2022-07-29T23:04:57;4.23;;;3.80;;
5702;SDS011;2876;51.738;10.050;2022-07-29T23:10:59;12.20;;;3.80;;
5702;SDS011;2876;51.738;10.050;2022-07-29T23:17:01;8.47;;;4.40;;
5702;SDS011;2876;51.738;10.050;2022-07-29T23:23:04;6.97;;;4.07;;
5702;SDS011;2876;51.738;10.050;2022-07-29T23:29:06;6.10;;;4.00;;
5702;SDS011;2876;51.738;10.050;2022-07-29T23:35:08;10.10;;;4.50;;
5702;SDS011;2876;51.738;10.050;2022-07-29T23:41:11;4.97;;;3.80;;
5702;SDS011;2876;51.738;10.050;2022-07-29T23:47:13;5.93;;;4.37;;
5702;SDS011;2876;51.738;10.050;2022-07-29T23:53:15;6.60;;;4.37;;
5702;SDS011;2876;51.738;10.050;2022-07-29T23:59:17;9.57;;;4.30;;
